createdAt,value
2022-11-13T00:01:18.465Z,72.55
2022-11-13T00:03:50.129Z,71.65
2022-11-13T00:06:19.326Z,72.93
2022-11-13T00:08:48.542Z,69.10
2022-11-13T00:11:18.968Z,77.07
2022-11-13T00:13:47.584Z,75.95
2022-11-13T00:16:17.277Z,77.68
2022-11-13T00:18:48.562Z,74.75
2022-11-13T00:21:18.668Z,76.60
2022-11-13T00:23:47.332Z,76.70
2022-11-13T00:26:17.044Z,76.82
2022-11-13T00:28:45.435Z,76.15
2022-11-13T00:31:15.145Z,75.22
2022-11-13T00:34:09.274Z,75.65
2022-11-13T00:36:32.795Z,73.03
2022-11-13T00:39:00.842Z,72.55
2022-11-13T00:41:28.801Z,73.70
2022-11-13T00:43:56.706Z,73.65
2022-11-13T00:46:24.580Z,73.43
2022-11-13T00:48:55.035Z,70.28
2022-11-13T00:51:23.241Z,70.15
2022-11-13T00:53:53.942Z,69.63
2022-11-13T00:56:21.998Z,70.75
2022-11-13T00:58:52.363Z,69.03
2022-11-13T01:01:22.478Z,68.10
2022-11-13T01:03:50.586Z,66.40
2022-11-13T01:06:22.017Z,65.72
2022-11-13T01:08:50.268Z,63.83
2022-11-13T01:11:34.489Z,64.70
2022-11-13T01:14:08.988Z,62.17
2022-11-13T01:16:37.143Z,64.70
2022-11-13T01:19:09.646Z,66.95
2022-11-13T01:21:37.871Z,67.22
2022-11-13T01:24:10.739Z,68.70
2022-11-13T01:26:40.434Z,66.20
2022-11-13T01:29:08.610Z,66.97
2022-11-13T01:31:39.263Z,66.70
2022-11-13T01:34:07.387Z,64.13
2022-11-13T01:36:35.814Z,61.05
2022-11-13T01:39:06.908Z,62.72
2022-11-13T01:41:36.090Z,62.55
2022-11-13T01:44:14.442Z,60.83
2022-11-13T01:46:43.950Z,64.53
2022-11-13T01:49:25.957Z,65.03
2022-11-13T01:51:57.862Z,66.15
2022-11-13T01:54:30.534Z,64.85
2022-11-13T01:56:59.581Z,64.05
2022-11-13T01:59:32.254Z,65.17
2022-11-13T02:02:00.751Z,63.25
2022-11-13T02:04:33.556Z,64.18
2022-11-13T02:07:04.080Z,61.05
2022-11-13T02:09:38.251Z,57.83
2022-11-13T02:12:08.303Z,59.17
2022-11-13T02:14:40.475Z,57.78
2022-11-13T02:17:12.376Z,57.40
2022-11-13T02:19:44.729Z,56.90
2022-11-13T02:22:21.279Z,55.97
2022-11-13T02:24:54.803Z,58.17
2022-11-13T02:27:27.845Z,57.73
2022-11-13T02:29:55.887Z,57.47
2022-11-13T02:32:24.010Z,57.30
2022-11-13T02:34:52.025Z,58.22
2022-11-13T02:37:20.212Z,56.03
2022-11-13T02:39:56.756Z,55.55
2022-11-13T02:42:52.482Z,55.63
2022-11-13T02:45:20.979Z,53.63
2022-11-13T02:47:50.787Z,55.65
2022-11-13T02:50:21.551Z,54.08
2022-11-13T02:52:58.860Z,52.87
2022-11-13T02:55:28.679Z,53.80
2022-11-13T02:57:58.793Z,51.55
2022-11-13T03:00:27.152Z,53.45
2022-11-13T03:02:59.800Z,53.10
2022-11-13T03:05:28.058Z,51.87
2022-11-13T03:07:57.982Z,51.47
2022-11-13T03:10:50.014Z,52.08
2022-11-13T03:13:20.100Z,50.83
2022-11-13T03:15:48.247Z,52.15
2022-11-13T03:18:18.239Z,51.37
2022-11-13T03:20:56.740Z,52.20
2022-11-13T03:23:24.975Z,50.85
2022-11-13T03:25:54.428Z,48.35
2022-11-13T03:28:52.322Z,43.77
2022-11-13T03:31:37.490Z,48.80
2022-11-13T03:34:29.819Z,46.97
2022-11-13T03:36:58.163Z,46.13
2022-11-13T03:39:34.945Z,46.77
2022-11-13T03:42:04.656Z,46.27
2022-11-13T03:44:35.573Z,47.13
2022-11-13T03:47:06.499Z,45.80
2022-11-13T03:49:34.594Z,47.42
2022-11-13T03:52:02.958Z,47.00
2022-11-13T03:54:32.844Z,47.15
2022-11-13T03:57:06.807Z,46.90
2022-11-13T03:59:36.430Z,46.33
2022-11-13T04:02:04.901Z,46.80
2022-11-13T04:04:37.953Z,46.00
2022-11-13T04:07:07.907Z,47.22
2022-11-13T04:09:49.886Z,46.78
2022-11-13T04:12:21.045Z,45.40
2022-11-13T04:14:50.856Z,45.90
2022-11-13T04:17:20.632Z,46.08
2022-11-13T04:19:50.380Z,46.78
2022-11-13T04:22:26.331Z,46.05
2022-11-13T04:24:54.986Z,46.47
2022-11-13T04:27:26.697Z,45.53
2022-11-13T04:29:59.237Z,47.22
2022-11-13T04:32:37.892Z,46.20
2022-11-13T04:35:12.042Z,45.40
2022-11-13T04:37:45.157Z,46.17
2022-11-13T04:50:34.688Z,44.00
2022-11-13T05:12:09.014Z,45.72
2022-11-13T05:14:37.830Z,45.40
2022-11-13T05:17:17.975Z,45.30
2022-11-13T05:20:07.291Z,44.80
2022-11-13T05:22:35.358Z,45.30
2022-11-13T05:25:05.934Z,45.30
2022-11-13T05:27:36.964Z,45.20
2022-11-13T05:30:05.777Z,44.87
2022-11-13T05:32:36.947Z,45.88
2022-11-13T05:35:05.341Z,45.17
2022-11-13T05:37:33.526Z,45.53
2022-11-13T05:40:01.593Z,43.53
2022-11-13T05:42:29.743Z,44.83
2022-11-13T05:45:03.189Z,41.90
2022-11-13T05:47:31.517Z,43.63
2022-11-13T05:49:59.757Z,44.07
2022-11-13T05:52:44.127Z,45.30
2022-11-13T05:55:14.784Z,43.07
2022-11-13T05:57:44.757Z,42.43
2022-11-13T06:00:16.081Z,43.60
2022-11-13T06:02:44.108Z,42.50
2022-11-13T06:05:12.111Z,44.07
2022-11-13T06:07:40.375Z,44.57
2022-11-13T06:10:10.620Z,44.00
2022-11-13T06:12:38.800Z,45.87
2022-11-13T06:15:07.675Z,43.53
2022-11-13T06:17:37.067Z,42.77
2022-11-13T06:20:05.676Z,44.57
2022-11-13T06:22:33.828Z,43.63
2022-11-13T06:25:01.844Z,44.77
2022-11-13T06:27:30.135Z,43.27
2022-11-13T06:30:15.378Z,42.73
2022-11-13T06:32:45.018Z,44.90
2022-11-13T06:35:15.476Z,44.80
2022-11-13T06:37:44.055Z,44.17
2022-11-13T06:40:15.715Z,44.53
2022-11-13T06:42:43.876Z,44.40
2022-11-13T06:45:12.467Z,43.50
2022-11-13T06:47:40.433Z,43.33
2022-11-13T06:50:11.005Z,42.80
2022-11-13T06:52:38.989Z,43.47
2022-11-13T06:55:07.267Z,43.90
2022-11-13T06:57:35.196Z,44.00
2022-11-13T07:00:03.726Z,43.63
2022-11-13T07:02:31.692Z,43.07
2022-11-13T07:04:59.588Z,38.03
2022-11-13T07:07:29.074Z,38.77
2022-11-13T07:09:57.024Z,38.67
2022-11-13T07:12:25.309Z,38.30
2022-11-13T07:14:53.261Z,38.23
2022-11-13T07:17:21.192Z,36.80
2022-11-13T07:19:49.129Z,37.23
2022-11-13T07:22:17.083Z,37.00
2022-11-13T07:24:46.451Z,38.07
2022-11-13T07:27:14.795Z,34.17
2022-11-13T07:29:42.683Z,33.90
2022-11-13T07:32:12.956Z,34.30
2022-11-13T07:34:40.964Z,34.43
2022-11-13T07:37:08.951Z,34.70
2022-11-13T07:39:36.838Z,34.67
2022-11-13T07:42:06.505Z,35.33
2022-11-13T07:44:53.444Z,33.70
2022-11-13T07:47:22.289Z,34.43
2022-11-13T07:49:50.258Z,33.72
2022-11-13T07:52:18.182Z,32.50
2022-11-13T07:54:46.097Z,32.37
2022-11-13T07:57:16.133Z,34.30
2022-11-13T07:59:44.164Z,33.03
2022-11-13T08:02:16.048Z,34.35
2022-11-13T08:04:43.962Z,33.25
2022-11-13T08:07:13.609Z,34.13
2022-11-13T08:09:41.617Z,34.65
2022-11-13T08:12:09.624Z,32.85
2022-11-13T08:14:38.993Z,33.13
2022-11-13T08:17:06.891Z,31.98
2022-11-13T08:19:34.806Z,30.93
2022-11-13T08:22:02.803Z,28.20
2022-11-13T08:24:30.759Z,28.92
2022-11-13T08:26:58.681Z,29.30
2022-11-13T08:29:26.834Z,27.77
2022-11-13T08:31:56.212Z,28.40
2022-11-13T08:34:24.262Z,25.67
2022-11-13T08:36:52.284Z,25.67
2022-11-13T08:39:20.400Z,24.20
2022-11-13T08:41:48.312Z,24.80
2022-11-13T08:44:16.284Z,25.70
2022-11-13T08:46:44.236Z,24.27
2022-11-13T08:49:13.711Z,24.90
2022-11-13T08:51:41.600Z,25.90
2022-11-13T08:54:09.544Z,24.73
2022-11-13T08:56:37.451Z,24.77
2022-11-13T08:59:05.563Z,25.83
2022-11-13T09:01:33.641Z,26.23
2022-11-13T09:04:02.838Z,27.63
2022-11-13T09:06:32.312Z,27.38
2022-11-13T09:09:00.347Z,27.33
2022-11-13T09:11:28.705Z,25.85
2022-11-13T09:13:56.680Z,22.60
2022-11-13T09:16:24.615Z,23.90
2022-11-13T09:18:53.270Z,23.27
2022-11-13T09:21:21.325Z,24.50
2022-11-13T09:23:51.051Z,24.17
2022-11-13T09:26:19.158Z,24.33
2022-11-13T09:28:47.403Z,24.70
2022-11-13T09:31:16.670Z,26.40
2022-11-13T09:33:47.384Z,26.45
2022-11-13T09:36:17.391Z,25.77
2022-11-13T09:38:45.429Z,26.75
2022-11-13T09:41:19.100Z,25.63
2022-11-13T09:43:55.232Z,24.77
2022-11-13T09:46:37.687Z,23.92
2022-11-13T09:49:15.810Z,24.35
2022-11-13T09:51:53.440Z,24.50
2022-11-13T09:54:21.747Z,22.73
2022-11-13T09:56:58.685Z,23.15
2022-11-13T09:59:33.287Z,21.10
2022-11-13T10:02:12.153Z,23.02
2022-11-13T10:04:54.254Z,22.48
2022-11-13T10:07:34.272Z,23.10
2022-11-13T10:10:18.196Z,22.90
2022-11-13T10:12:52.243Z,22.50
2022-11-13T10:15:21.655Z,23.55
2022-11-13T10:17:56.867Z,23.10
2022-11-13T10:20:30.724Z,21.77
2022-11-13T10:23:10.024Z,22.92
2022-11-13T10:25:39.272Z,22.52
2022-11-13T10:28:48.385Z,22.73
2022-11-13T10:31:04.217Z,22.85
2022-11-13T10:33:32.174Z,21.30
2022-11-13T10:36:08.553Z,20.73
2022-11-13T10:38:42.859Z,19.77
2022-11-13T10:41:14.496Z,23.02
2022-11-13T10:43:59.988Z,22.80
2022-11-13T10:46:30.581Z,21.70
2022-11-13T10:48:59.127Z,21.33
2022-11-13T10:51:29.206Z,20.77
2022-11-13T10:54:00.721Z,20.23
2022-11-13T10:56:30.944Z,34.55
2022-11-13T10:59:12.200Z,20.67
2022-11-13T11:01:44.674Z,20.58
2022-11-13T11:04:15.773Z,20.95
2022-11-13T11:09:33.144Z,21.98
2022-11-13T11:12:16.270Z,21.67
2022-11-13T11:15:03.288Z,21.00
2022-11-13T11:17:37.926Z,20.35
2022-11-13T11:20:09.247Z,21.73
2022-11-13T11:22:40.025Z,21.50
2022-11-13T11:25:16.411Z,21.58
2022-11-13T11:27:48.316Z,20.92
2022-11-13T11:30:21.998Z,22.33
2022-11-13T11:32:57.333Z,19.42
2022-11-13T11:35:32.462Z,18.63
2022-11-13T11:38:06.993Z,20.48
2022-11-13T11:40:38.620Z,19.35
2022-11-13T11:43:13.748Z,19.63
2022-11-13T11:45:46.082Z,18.65
2022-11-13T11:48:16.191Z,18.70
2022-11-13T11:50:50.058Z,18.45
2022-11-13T11:53:28.620Z,19.10
2022-11-13T11:56:08.842Z,20.17
2022-11-13T11:59:08.543Z,19.38
2022-11-13T12:01:54.611Z,19.05
2022-11-13T12:04:38.606Z,18.63
2022-11-13T12:07:18.965Z,17.85
2022-11-13T12:09:56.915Z,18.90
2022-11-13T12:12:38.200Z,21.70
2022-11-13T12:15:16.514Z,19.42
2022-11-13T12:18:03.321Z,20.05
2022-11-13T12:20:39.499Z,19.85
2022-11-13T12:23:23.023Z,20.48
2022-11-13T12:25:56.680Z,19.77
2022-11-13T12:28:35.937Z,19.90
2022-11-13T12:31:19.589Z,20.30
2022-11-13T12:34:01.009Z,21.33
2022-11-13T12:36:31.010Z,19.67
2022-11-13T12:39:07.938Z,22.00
2022-11-13T12:41:43.209Z,21.77
2022-11-13T12:44:25.199Z,21.27
2022-11-13T12:46:57.165Z,21.42
2022-11-13T12:49:34.736Z,21.80
2022-11-13T12:52:05.718Z,21.17
2022-11-13T12:54:36.230Z,20.02
2022-11-13T12:57:17.442Z,19.98
2022-11-13T12:59:47.765Z,20.08
2022-11-13T13:02:51.556Z,20.77
2022-11-13T13:05:34.436Z,20.25
2022-11-13T13:08:35.260Z,20.30
2022-11-13T13:11:15.129Z,18.15
2022-11-13T13:13:49.868Z,18.40
2022-11-13T13:16:24.843Z,16.13
2022-11-13T13:18:53.313Z,15.35
2022-11-13T13:21:23.160Z,16.40
2022-11-13T13:23:53.307Z,15.70
2022-11-13T13:26:23.204Z,14.57
2022-11-13T13:28:53.502Z,14.75
2022-11-13T13:31:37.422Z,13.27
2022-11-13T13:34:22.279Z,14.57
2022-11-13T13:36:58.452Z,12.63
2022-11-13T13:39:47.288Z,12.45
2022-11-13T13:42:25.846Z,12.90
2022-11-13T13:45:12.489Z,13.05
2022-11-13T13:47:44.658Z,14.93
2022-11-13T13:50:17.754Z,14.48
2022-11-13T13:52:52.668Z,11.27
2022-11-13T13:55:28.951Z,11.90
2022-11-13T13:58:02.696Z,11.88
2022-11-13T14:00:33.924Z,14.60
2022-11-13T14:03:06.131Z,13.00
2022-11-13T14:05:36.433Z,12.07
2022-11-13T14:08:17.945Z,13.50
2022-11-13T14:10:50.230Z,10.10
2022-11-13T14:13:25.608Z,10.88
2022-11-13T14:16:05.400Z,10.70
2022-11-13T14:18:34.833Z,11.70
2022-11-13T14:21:09.622Z,11.32
2022-11-13T14:23:43.468Z,11.43
2022-11-13T14:26:12.077Z,10.27
2022-11-13T14:28:53.175Z,12.07
2022-11-13T14:31:30.637Z,11.50
2022-11-13T14:34:01.843Z,10.07
2022-11-13T14:36:37.345Z,11.15
2022-11-13T14:39:08.105Z,10.20
2022-11-13T14:41:40.365Z,11.23
2022-11-13T14:44:11.557Z,10.98
2022-11-13T14:46:44.303Z,14.18
2022-11-13T14:49:15.298Z,12.32
2022-11-13T14:51:43.609Z,11.35
2022-11-13T14:55:00.252Z,10.18
2022-11-13T14:57:23.476Z,12.68
2022-11-13T14:59:51.436Z,10.65
2022-11-13T15:02:20.303Z,10.80
2022-11-13T15:04:48.512Z,11.95
2022-11-13T15:07:23.952Z,12.48
2022-11-13T15:09:53.790Z,11.80
2022-11-13T15:12:21.819Z,10.80
2022-11-13T15:14:49.848Z,11.38
2022-11-13T15:17:20.867Z,12.05
2022-11-13T15:19:52.641Z,12.52
2022-11-13T15:22:27.008Z,10.75
2022-11-13T15:24:57.443Z,10.52
2022-11-13T15:27:25.531Z,12.20
2022-11-13T15:29:53.598Z,13.05
2022-11-13T15:32:23.566Z,11.60
2022-11-13T15:37:39.056Z,11.40
2022-11-13T15:40:10.164Z,12.20
2022-11-13T15:42:38.534Z,10.75
2022-11-13T15:45:09.875Z,11.32
2022-11-13T15:47:39.215Z,12.50
2022-11-13T15:50:14.063Z,12.63
2022-11-13T15:52:46.751Z,11.15
2022-11-13T15:55:26.843Z,11.55
2022-11-13T15:57:55.640Z,12.82
2022-11-13T16:11:16.936Z,17.90
2022-11-13T16:13:45.223Z,21.60
2022-11-13T16:16:17.467Z,23.77
2022-11-13T16:18:45.429Z,21.02
2022-11-13T16:21:14.836Z,24.13
2022-11-13T16:23:43.151Z,21.90
2022-11-13T16:26:20.024Z,23.13
2022-11-13T16:29:07.679Z,26.70
2022-11-13T16:31:36.571Z,24.73
2022-11-13T16:34:04.559Z,27.67
2022-11-13T16:36:32.709Z,27.33
2022-11-13T16:39:00.774Z,35.63
2022-11-13T16:41:32.487Z,34.67
2022-11-13T16:44:00.391Z,35.67
2022-11-13T16:46:32.466Z,35.55
2022-11-13T16:49:00.868Z,35.75
2022-11-13T16:51:28.888Z,34.28
2022-11-13T16:53:56.934Z,36.08
2022-11-13T16:56:29.000Z,35.05
2022-11-13T16:59:02.762Z,34.03
2022-11-13T17:01:30.903Z,32.00
2022-11-13T17:04:04.211Z,34.15
2022-11-13T17:06:34.369Z,37.90
2022-11-13T17:09:03.802Z,38.15
2022-11-13T17:11:33.607Z,39.70
2022-11-13T17:14:04.599Z,45.50
2022-11-13T17:16:33.184Z,46.28
2022-11-13T17:19:01.636Z,46.30
2022-11-13T17:21:30.809Z,45.25
2022-11-13T17:24:01.420Z,47.05
2022-11-13T17:26:30.916Z,44.90
2022-11-13T17:29:01.842Z,44.20
2022-11-13T17:31:31.288Z,45.42
2022-11-13T17:33:59.203Z,45.00
2022-11-13T17:36:27.391Z,45.38
2022-11-13T17:38:55.367Z,45.90
2022-11-13T17:41:23.400Z,45.30
2022-11-13T17:43:51.278Z,45.17
2022-11-13T17:46:19.479Z,46.20
2022-11-13T17:48:48.949Z,44.90
2022-11-13T17:51:17.433Z,45.80
2022-11-13T17:53:45.719Z,46.28
2022-11-13T17:56:14.236Z,44.50
2022-11-13T17:58:43.556Z,45.10
2022-11-13T18:01:14.591Z,42.60
2022-11-13T18:03:42.921Z,43.22
2022-11-13T18:06:18.290Z,45.50
2022-11-13T18:08:47.971Z,47.28
2022-11-13T18:11:19.238Z,46.08
2022-11-13T18:13:47.816Z,45.90
2022-11-13T18:16:19.177Z,45.88
2022-11-13T18:18:50.253Z,47.05
2022-11-13T18:21:23.217Z,50.83
2022-11-13T18:23:57.972Z,52.10
2022-11-13T18:26:26.295Z,51.97
2022-11-13T18:28:54.869Z,58.40
2022-11-13T18:31:23.521Z,51.53
2022-11-13T18:33:52.782Z,49.80
2022-11-13T18:36:22.155Z,49.53
2022-11-13T18:38:50.066Z,48.78
2022-11-13T18:41:20.232Z,51.58
2022-11-13T18:43:49.554Z,51.53
2022-11-13T18:46:19.397Z,51.10
2022-11-13T18:48:48.611Z,47.95
2022-11-13T18:51:18.568Z,43.45
2022-11-13T18:53:49.514Z,42.55
2022-11-13T18:56:19.481Z,44.25
2022-11-13T18:58:49.367Z,46.65
2022-11-13T19:01:22.592Z,48.05
2022-11-13T19:06:40.413Z,56.10
2022-11-13T19:09:13.605Z,53.75
2022-11-13T19:11:42.114Z,53.97
2022-11-13T19:14:14.551Z,50.45
2022-11-13T19:16:42.497Z,53.03
2022-11-13T19:19:24.283Z,51.92
2022-11-13T19:21:52.447Z,49.95
2022-11-13T19:24:21.693Z,49.90
2022-11-13T19:26:49.543Z,50.03
2022-11-13T19:29:17.626Z,49.50
2022-11-13T19:31:47.828Z,48.65
2022-11-13T19:34:15.800Z,46.55
2022-11-13T19:36:45.152Z,45.47
2022-11-13T19:39:13.751Z,47.42
2022-11-13T19:41:43.251Z,46.33
2022-11-13T19:44:13.708Z,47.90
2022-11-13T19:46:41.960Z,47.30
2022-11-13T19:49:13.201Z,48.20
2022-11-13T19:51:41.414Z,46.10
2022-11-13T19:54:09.829Z,45.75
2022-11-13T19:56:43.443Z,45.72
2022-11-13T19:59:12.348Z,45.58
2022-11-13T20:01:40.802Z,45.85
2022-11-13T20:04:11.858Z,45.25
2022-11-13T20:06:39.869Z,43.67
2022-11-13T20:09:08.186Z,46.10
2022-11-13T20:11:36.129Z,44.10
2022-11-13T20:14:05.758Z,43.45
2022-11-13T20:16:37.332Z,44.17
2022-11-13T20:19:05.377Z,43.60
2022-11-13T20:21:33.445Z,44.17
2022-11-13T20:24:02.041Z,43.00
2022-11-13T20:26:33.235Z,44.20
2022-11-13T20:29:01.590Z,45.22
2022-11-13T20:31:30.923Z,45.30
2022-11-13T20:33:59.140Z,44.05
2022-11-13T20:36:27.176Z,43.55
2022-11-13T20:38:56.801Z,46.95
2022-11-13T20:41:25.328Z,45.33
2022-11-13T20:43:55.688Z,45.67
2022-11-13T20:46:24.195Z,45.17
2022-11-13T20:48:53.695Z,44.70
2022-11-13T20:51:24.572Z,44.22
2022-11-13T20:53:53.177Z,45.22
2022-11-13T20:56:22.682Z,44.38
2022-11-13T20:58:50.930Z,44.50
2022-11-13T21:01:20.986Z,41.88
2022-11-13T21:03:49.856Z,43.67
2022-11-13T21:06:20.974Z,43.75
2022-11-13T21:08:50.442Z,44.88
2022-11-13T21:11:21.899Z,43.78
2022-11-13T21:13:51.208Z,43.42
2022-11-13T21:16:19.234Z,43.27
2022-11-13T21:18:47.782Z,42.83
2022-11-13T21:21:19.263Z,45.10
2022-11-13T21:23:50.736Z,44.85
2022-11-13T21:26:18.726Z,46.13
2022-11-13T21:28:46.884Z,47.28
2022-11-13T21:31:16.313Z,49.30
2022-11-13T21:33:45.663Z,49.80
2022-11-13T21:36:15.662Z,48.28
2022-11-13T21:38:45.582Z,47.65
2022-11-13T21:41:25.174Z,47.42
2022-11-13T21:43:57.708Z,47.30
2022-11-13T21:46:27.487Z,47.55
2022-11-13T21:49:00.518Z,47.78
2022-11-13T21:51:28.533Z,49.22
2022-11-13T21:53:58.399Z,50.40
2022-11-13T21:56:27.758Z,52.00
2022-11-13T21:58:58.132Z,51.65
2022-11-13T22:01:27.203Z,50.22
2022-11-13T22:03:55.875Z,51.50
2022-11-13T22:06:25.575Z,51.53
2022-11-13T22:09:00.598Z,50.70
2022-11-13T22:11:31.782Z,51.88
2022-11-13T22:14:00.510Z,52.42
2022-11-13T22:16:30.292Z,51.40
2022-11-13T22:19:00.020Z,51.47
2022-11-13T22:21:29.586Z,50.97
2022-11-13T22:23:59.430Z,51.53
2022-11-13T22:26:29.051Z,51.37
2022-11-13T22:28:57.642Z,51.95
2022-11-13T22:31:27.311Z,50.90
2022-11-13T22:33:56.274Z,50.88
2022-11-13T22:36:26.480Z,49.53
2022-11-13T22:38:55.243Z,51.60
2022-11-13T22:41:29.810Z,50.23
2022-11-13T22:44:00.512Z,52.77
2022-11-13T22:46:29.761Z,51.67
2022-11-13T22:49:00.115Z,52.23
2022-11-13T22:51:29.809Z,51.50
2022-11-13T22:53:59.290Z,50.13
2022-11-13T22:56:32.775Z,54.13
2022-11-13T22:59:04.889Z,54.17
2022-11-13T23:01:34.400Z,54.07
2022-11-13T23:04:06.366Z,53.60
2022-11-13T23:06:36.420Z,53.43
2022-11-13T23:09:05.211Z,53.23
2022-11-13T23:11:37.857Z,52.43
2022-11-13T23:14:07.654Z,52.20
2022-11-13T23:16:35.903Z,50.67
2022-11-13T23:19:06.297Z,51.93
2022-11-13T23:21:34.567Z,52.33
2022-11-13T23:24:02.683Z,53.67
2022-11-13T23:26:30.903Z,53.57
2022-11-13T23:29:00.483Z,53.57
2022-11-13T23:31:28.388Z,53.33
2022-11-13T23:33:56.416Z,53.77
2022-11-13T23:36:24.384Z,54.30
2022-11-13T23:38:53.445Z,54.10
2022-11-13T23:41:22.452Z,54.00
2022-11-13T23:46:42.556Z,54.80
2022-11-13T23:49:11.222Z,53.47
2022-11-13T23:51:39.335Z,53.33
2022-11-13T23:54:07.322Z,53.33
2022-11-13T23:56:35.422Z,52.13
2022-11-13T23:59:07.762Z,53.93
